Terminal Aerodrome Forecast
Issued by NWS Chicago, IL

Home | Current Version | Previous Version | Text Only | Print | Product List | Glossary On
Versions: 1 2 3 4 5 6 7 8 9 10 11 12 13 14 15 16 17 18 19 20 21 22 23 24 25 26 27
175
FTUS43 KLOT 040520
TAFRFD
TAF
KRFD 040520Z 0406/0506 34012KT 6SM SHRA VCTS SCT035CB BKN050
      TEMPO 0406/0407 36018G30KT 4SM TSRA SCT007CB BKN012
     FM040700 35014G20KT P6SM VCSH SCT007 OVC012
     FM041000 36015G25KT P6SM SCT007 OVC012
     FM041500 35017G28KT P6SM VCSH BKN020 OVC030
     FM042000 35017G27KT 6SM -SHRA BKN030
     FM050000 01012KT P6SM FEW035=

USA.gov is the U.S. government's official web portal to all federal, state and local government web resources and services.